sensor_id;sensor_type;location;lat;lon;timestamp;pressure;altitude;pressure_sealevel;temperature;humidity
63033;BME280;49121;38.932;-9.018;2023-02-21T00:02:16;111992.50;;;-145.11;73.46
63033;BME280;49121;38.932;-9.018;2023-02-21T00:04:36;111992.50;;;-145.11;73.34
63033;BME280;49121;38.932;-9.018;2023-02-21T00:06:55;111992.50;;;-145.11;73.49
63033;BME280;49121;38.932;-9.018;2023-02-21T00:09:14;111992.50;;;-145.11;73.44
63033;BME280;49121;38.932;-9.018;2023-02-21T00:11:34;111992.50;;;-145.11;73.56
63033;BME280;49121;38.932;-9.018;2023-02-21T00:13:53;111992.50;;;-145.11;73.59
63033;BME280;49121;38.932;-9.018;2023-02-21T00:16:17;111992.50;;;-145.11;73.76
63033;BME280;49121;38.932;-9.018;2023-02-21T00:18:55;111992.50;;;-145.11;73.76
63033;BME280;49121;38.932;-9.018;2023-02-21T00:21:14;111992.50;;;-145.11;74.25
63033;BME280;49121;38.932;-9.018;2023-02-21T00:23:35;111992.50;;;-145.11;74.39
63033;BME280;49121;38.932;-9.018;2023-02-21T00:25:54;111992.50;;;-145.11;74.48
63033;BME280;49121;38.932;-9.018;2023-02-21T00:28:13;111992.50;;;-145.11;74.47
63033;BME280;49121;38.932;-9.018;2023-02-21T00:30:32;111992.50;;;-145.11;74.47
63033;BME280;49121;38.932;-9.018;2023-02-21T00:32:55;111992.50;;;-145.11;74.61
63033;BME280;49121;38.932;-9.018;2023-02-21T00:35:14;111992.50;;;-145.11;74.75
63033;BME280;49121;38.932;-9.018;2023-02-21T00:37:34;111992.50;;;-145.11;74.81
63033;BME280;49121;38.932;-9.018;2023-02-21T00:39:54;111992.50;;;-145.11;74.85
63033;BME280;49121;38.932;-9.018;2023-02-21T00:42:13;111992.50;;;-145.11;74.75
63033;BME280;49121;38.932;-9.018;2023-02-21T00:44:32;111992.50;;;-145.11;74.78
63033;BME280;49121;38.932;-9.018;2023-02-21T00:46:55;111992.50;;;-145.11;74.92
63033;BME280;49121;38.932;-9.018;2023-02-21T00:49:14;111992.50;;;-145.11;75.11
63033;BME280;49121;38.932;-9.018;2023-02-21T00:51:52;111992.50;;;-145.11;75.14
63033;BME280;49121;38.932;-9.018;2023-02-21T00:54:29;111992.50;;;-145.11;75.48
63033;BME280;49121;38.932;-9.018;2023-02-21T00:56:49;111992.50;;;-145.11;75.64
63033;BME280;49121;38.932;-9.018;2023-02-21T00:59:08;111992.50;;;-145.11;75.68
63033;BME280;49121;38.932;-9.018;2023-02-21T01:01:39;111992.50;;;-145.11;75.71
63033;BME280;49121;38.932;-9.018;2023-02-21T01:03:59;111992.50;;;-145.11;75.85
63033;BME280;49121;38.932;-9.018;2023-02-21T01:06:19;111992.50;;;-145.11;75.84
63033;BME280;49121;38.932;-9.018;2023-02-21T01:08:43;111992.50;;;-145.11;76.05
63033;BME280;49121;38.932;-9.018;2023-02-21T01:11:02;111992.50;;;-145.11;76.36
63033;BME280;49121;38.932;-9.018;2023-02-21T01:13:22;111992.50;;;-145.11;76.14
63033;BME280;49121;38.932;-9.018;2023-02-21T01:15:41;111992.50;;;-145.11;76.76
63033;BME280;49121;38.932;-9.018;2023-02-21T01:18:01;111992.50;;;-145.11;77.04
63033;BME280;49121;38.932;-9.018;2023-02-21T01:20:20;111992.50;;;-145.11;77.12
63033;BME280;49121;38.932;-9.018;2023-02-21T01:22:39;111992.50;;;-145.11;77.07
63033;BME280;49121;38.932;-9.018;2023-02-21T01:24:59;111992.50;;;-145.11;77.21
63033;BME280;49121;38.932;-9.018;2023-02-21T01:27:18;111992.50;;;-145.11;77.00
63033;BME280;49121;38.932;-9.018;2023-02-21T01:29:37;111992.50;;;-145.11;77.03
63033;BME280;49121;38.932;-9.018;2023-02-21T01:32:16;111992.50;;;-145.11;77.24
63033;BME280;49121;38.932;-9.018;2023-02-21T01:34:54;111992.50;;;-145.11;77.63
63033;BME280;49121;38.932;-9.018;2023-02-21T01:37:13;111992.50;;;-145.11;77.57
63033;BME280;49121;38.932;-9.018;2023-02-21T01:39:32;111992.50;;;-145.11;77.53
63033;BME280;49121;38.932;-9.018;2023-02-21T01:41:51;111992.50;;;-145.11;78.04
63033;BME280;49121;38.932;-9.018;2023-02-21T01:44:40;111992.50;;;-145.11;77.78
63033;BME280;49121;38.932;-9.018;2023-02-21T01:46:59;111992.50;;;-145.11;77.76
63033;BME280;49121;38.932;-9.018;2023-02-21T01:49:19;111992.50;;;-145.11;78.07
63033;BME280;49121;38.932;-9.018;2023-02-21T01:51:40;111992.50;;;-145.11;78.22
63033;BME280;49121;38.932;-9.018;2023-02-21T01:54:19;111992.50;;;-145.11;78.25
63033;BME280;49121;38.932;-9.018;2023-02-21T01:56:39;111992.50;;;-145.11;78.38
63033;BME280;49121;38.932;-9.018;2023-02-21T01:59:05;111992.50;;;-145.11;78.45
63033;BME280;49121;38.932;-9.018;2023-02-21T02:04:04;111992.50;;;-145.11;78.82
63033;BME280;49121;38.932;-9.018;2023-02-21T02:06:24;111992.50;;;-145.11;79.19
63033;BME280;49121;38.932;-9.018;2023-02-21T02:08:43;111992.50;;;-145.11;79.56
63033;BME280;49121;38.932;-9.018;2023-02-21T02:11:09;111992.50;;;-145.11;79.91
63033;BME280;49121;38.932;-9.018;2023-02-21T02:13:56;111992.50;;;-145.11;80.22
63033;BME280;49121;38.932;-9.018;2023-02-21T02:16:23;111992.50;;;-145.11;79.85
63033;BME280;49121;38.932;-9.018;2023-02-21T02:25:07;111992.50;;;-145.11;79.54
63033;BME280;49121;38.932;-9.018;2023-02-21T02:27:28;111992.50;;;-145.11;79.61
63033;BME280;49121;38.932;-9.018;2023-02-21T02:41:10;111992.50;;;-145.11;80.56
63033;BME280;49121;38.932;-9.018;2023-02-21T02:43:24;111992.50;;;-145.11;80.75
63033;BME280;49121;38.932;-9.018;2023-02-21T02:47:36;111992.50;;;-145.11;80.48
63033;BME280;49121;38.932;-9.018;2023-02-21T02:49:40;111992.50;;;-145.11;80.42
63033;BME280;49121;38.932;-9.018;2023-02-21T02:51:42;111992.50;;;-145.11;80.14
63033;BME280;49121;38.932;-9.018;2023-02-21T02:53:45;111992.50;;;-145.11;80.04
63033;BME280;49121;38.932;-9.018;2023-02-21T02:55:53;111992.50;;;-145.11;80.01
63033;BME280;49121;38.932;-9.018;2023-02-21T02:58:14;111992.50;;;-145.11;80.03
63033;BME280;49121;38.932;-9.018;2023-02-21T03:08:05;111992.50;;;-145.11;80.65
63033;BME280;49121;38.932;-9.018;2023-02-21T03:12:42;111992.50;;;-145.11;81.12
63033;BME280;49121;38.932;-9.018;2023-02-21T03:15:02;111992.50;;;-145.11;81.13
63033;BME280;49121;38.932;-9.018;2023-02-21T03:17:25;111992.50;;;-145.11;81.20
63033;BME280;49121;38.932;-9.018;2023-02-21T03:19:32;111992.50;;;-145.11;81.39
63033;BME280;49121;38.932;-9.018;2023-02-21T03:21:41;111992.50;;;-145.11;82.14
63033;BME280;49121;38.932;-9.018;2023-02-21T03:23:43;111992.50;;;-145.11;81.87
63033;BME280;49121;38.932;-9.018;2023-02-21T03:25:47;111992.50;;;-145.11;82.01
63033;BME280;49121;38.932;-9.018;2023-02-21T03:27:51;111992.50;;;-145.11;82.31
63033;BME280;49121;38.932;-9.018;2023-02-21T03:30:01;111992.50;;;-145.11;82.56
63033;BME280;49121;38.932;-9.018;2023-02-21T03:32:08;111992.50;;;-145.11;82.24
63033;BME280;49121;38.932;-9.018;2023-02-21T03:34:12;111992.50;;;-145.11;82.96
63033;BME280;49121;38.932;-9.018;2023-02-21T03:36:17;111992.50;;;-145.11;82.77
63033;BME280;49121;38.932;-9.018;2023-02-21T03:38:18;111992.50;;;-145.11;82.71
63033;BME280;49121;38.932;-9.018;2023-02-21T03:40:30;111992.50;;;-145.11;82.76
63033;BME280;49121;38.932;-9.018;2023-02-21T03:42:32;111992.50;;;-145.11;82.99
63033;BME280;49121;38.932;-9.018;2023-02-21T03:44:52;111992.50;;;-145.11;83.23
63033;BME280;49121;38.932;-9.018;2023-02-21T03:46:53;111992.50;;;-145.11;83.32
63033;BME280;49121;38.932;-9.018;2023-02-21T03:48:54;111992.50;;;-145.11;83.59
63033;BME280;49121;38.932;-9.018;2023-02-21T03:51:00;111992.50;;;-145.11;83.12
63033;BME280;49121;38.932;-9.018;2023-02-21T03:53:06;111992.50;;;-145.11;83.34
63033;BME280;49121;38.932;-9.018;2023-02-21T03:55:07;111992.50;;;-145.11;83.41
63033;BME280;49121;38.932;-9.018;2023-02-21T03:57:09;111992.50;;;-145.11;83.43
63033;BME280;49121;38.932;-9.018;2023-02-21T03:59:15;111992.50;;;-145.11;83.25
63033;BME280;49121;38.932;-9.018;2023-02-21T04:01:16;111992.50;;;-145.11;83.32
63033;BME280;49121;38.932;-9.018;2023-02-21T04:03:16;111992.50;;;-145.11;83.42
63033;BME280;49121;38.932;-9.018;2023-02-21T04:05:24;111992.50;;;-145.11;83.09
63033;BME280;49121;38.932;-9.018;2023-02-21T04:07:25;111992.50;;;-145.11;83.05
63033;BME280;49121;38.932;-9.018;2023-02-21T04:09:25;111992.50;;;-145.11;83.25
63033;BME280;49121;38.932;-9.018;2023-02-21T04:11:26;111992.50;;;-145.11;83.34
63033;BME280;49121;38.932;-9.018;2023-02-21T04:13:27;111992.50;;;-145.11;83.23
63033;BME280;49121;38.932;-9.018;2023-02-21T04:15:29;111992.50;;;-145.11;83.32
63033;BME280;49121;38.932;-9.018;2023-02-21T04:17:30;111992.50;;;-145.11;82.83
63033;BME280;49121;38.932;-9.018;2023-02-21T04:19:33;111992.50;;;-145.11;82.62
63033;BME280;49121;38.932;-9.018;2023-02-21T04:21:35;111992.50;;;-145.11;83.01
63033;BME280;49121;38.932;-9.018;2023-02-21T04:23:36;111992.50;;;-145.11;83.46
63033;BME280;49121;38.932;-9.018;2023-02-21T04:25:37;111992.50;;;-145.11;83.66
63033;BME280;49121;38.932;-9.018;2023-02-21T04:27:45;111992.50;;;-145.11;83.64
63033;BME280;49121;38.932;-9.018;2023-02-21T04:30:04;111992.50;;;-145.11;82.96
63033;BME280;49121;38.932;-9.018;2023-02-21T04:32:05;111992.50;;;-145.11;82.81
63033;BME280;49121;38.932;-9.018;2023-02-21T04:34:08;111992.50;;;-145.11;82.69
63033;BME280;49121;38.932;-9.018;2023-02-21T04:36:10;111992.50;;;-145.11;82.71
63033;BME280;49121;38.932;-9.018;2023-02-21T04:38:29;111992.50;;;-145.11;83.06
63033;BME280;49121;38.932;-9.018;2023-02-21T04:40:30;111992.50;;;-145.11;83.45
63033;BME280;49121;38.932;-9.018;2023-02-21T04:42:30;111992.50;;;-145.11;83.66
63033;BME280;49121;38.932;-9.018;2023-02-21T04:44:32;111992.50;;;-145.11;84.01
63033;BME280;49121;38.932;-9.018;2023-02-21T04:46:33;111992.50;;;-145.11;84.15
63033;BME280;49121;38.932;-9.018;2023-02-21T04:48:54;111992.50;;;-145.11;84.33
63033;BME280;49121;38.932;-9.018;2023-02-21T04:51:15;111992.50;;;-145.11;84.33
63033;BME280;49121;38.932;-9.018;2023-02-21T04:53:15;111992.50;;;-145.11;84.56
63033;BME280;49121;38.932;-9.018;2023-02-21T04:55:16;111992.50;;;-145.11;85.04
63033;BME280;49121;38.932;-9.018;2023-02-21T04:57:18;111992.50;;;-145.11;85.43
63033;BME280;49121;38.932;-9.018;2023-02-21T05:02:00;111992.50;;;-145.11;85.91
63033;BME280;49121;38.932;-9.018;2023-02-21T05:04:01;111992.50;;;-145.11;86.09
63033;BME280;49121;38.932;-9.018;2023-02-21T05:06:03;111992.50;;;-145.11;86.67
63033;BME280;49121;38.932;-9.018;2023-02-21T05:08:03;111992.50;;;-145.11;86.49
63033;BME280;49121;38.932;-9.018;2023-02-21T05:10:04;111992.50;;;-145.11;86.47
63033;BME280;49121;38.932;-9.018;2023-02-21T05:12:05;111992.50;;;-145.11;86.49
63033;BME280;49121;38.932;-9.018;2023-02-21T05:14:10;111992.50;;;-145.11;86.24
63033;BME280;49121;38.932;-9.018;2023-02-21T05:16:11;111992.50;;;-145.11;86.28
63033;BME280;49121;38.932;-9.018;2023-02-21T05:18:15;111992.50;;;-145.11;86.37
63033;BME280;49121;38.932;-9.018;2023-02-21T05:20:22;111992.50;;;-145.11;87.03
63033;BME280;49121;38.932;-9.018;2023-02-21T05:22:23;111992.50;;;-145.11;86.78
63033;BME280;49121;38.932;-9.018;2023-02-21T05:24:25;111992.50;;;-145.11;86.85
63033;BME280;49121;38.932;-9.018;2023-02-21T05:26:31;111992.50;;;-145.11;86.78
63033;BME280;49121;38.932;-9.018;2023-02-21T05:28:33;111992.50;;;-145.11;86.89
63033;BME280;49121;38.932;-9.018;2023-02-21T05:30:34;111992.50;;;-145.11;86.79
63033;BME280;49121;38.932;-9.018;2023-02-21T05:32:34;111992.50;;;-145.11;86.68
63033;BME280;49121;38.932;-9.018;2023-02-21T05:34:35;111992.50;;;-145.11;86.71
63033;BME280;49121;38.932;-9.018;2023-02-21T05:36:36;111992.50;;;-145.11;86.92
63033;BME280;49121;38.932;-9.018;2023-02-21T05:44:22;111992.50;;;-145.11;86.17
63033;BME280;49121;38.932;-9.018;2023-02-21T05:46:26;111992.50;;;-145.11;87.01
63033;BME280;49121;38.932;-9.018;2023-02-21T05:48:27;111992.50;;;-145.11;86.80
63033;BME280;49121;38.932;-9.018;2023-02-21T05:50:28;111992.50;;;-145.11;86.50
63033;BME280;49121;38.932;-9.018;2023-02-21T05:52:29;111992.50;;;-145.11;86.98
63033;BME280;49121;38.932;-9.018;2023-02-21T05:54:30;111992.50;;;-145.11;86.78
63033;BME280;49121;38.932;-9.018;2023-02-21T05:56:37;111992.50;;;-145.11;87.31
63033;BME280;49121;38.932;-9.018;2023-02-21T05:58:38;111992.50;;;-145.11;86.86
63033;BME280;49121;38.932;-9.018;2023-02-21T06:00:40;111992.50;;;-145.11;86.38
63033;BME280;49121;38.932;-9.018;2023-02-21T06:02:40;111992.50;;;-145.11;86.88
63033;BME280;49121;38.932;-9.018;2023-02-21T06:04:41;111992.50;;;-145.11;86.62
63033;BME280;49121;38.932;-9.018;2023-02-21T06:06:42;111992.50;;;-145.11;86.80
63033;BME280;49121;38.932;-9.018;2023-02-21T06:08:44;111992.50;;;-145.11;87.11
63033;BME280;49121;38.932;-9.018;2023-02-21T06:10:45;111992.50;;;-145.11;86.98
63033;BME280;49121;38.932;-9.018;2023-02-21T06:12:49;111992.50;;;-145.11;87.28
63033;BME280;49121;38.932;-9.018;2023-02-21T06:14:50;111992.50;;;-145.11;86.97
63033;BME280;49121;38.932;-9.018;2023-02-21T06:16:50;111992.50;;;-145.11;87.18
63033;BME280;49121;38.932;-9.018;2023-02-21T06:18:53;111992.50;;;-145.11;87.00
63033;BME280;49121;38.932;-9.018;2023-02-21T06:20:54;111992.50;;;-145.11;87.42
63033;BME280;49121;38.932;-9.018;2023-02-21T06:23:13;111992.50;;;-145.11;87.53
63033;BME280;49121;38.932;-9.018;2023-02-21T06:25:14;111992.50;;;-145.11;87.92
63033;BME280;49121;38.932;-9.018;2023-02-21T06:27:15;111992.50;;;-145.11;87.93
63033;BME280;49121;38.932;-9.018;2023-02-21T06:29:16;111992.50;;;-145.11;88.15
63033;BME280;49121;38.932;-9.018;2023-02-21T06:31:35;111992.50;;;-145.11;87.98
63033;BME280;49121;38.932;-9.018;2023-02-21T06:33:36;111992.50;;;-145.11;88.25
63033;BME280;49121;38.932;-9.018;2023-02-21T06:35:36;111992.50;;;-145.11;88.75
63033;BME280;49121;38.932;-9.018;2023-02-21T06:37:37;111992.50;;;-145.11;89.14
63033;BME280;49121;38.932;-9.018;2023-02-21T06:39:38;111992.50;;;-145.11;89.12
63033;BME280;49121;38.932;-9.018;2023-02-21T06:41:39;111992.50;;;-145.11;88.82
63033;BME280;49121;38.932;-9.018;2023-02-21T06:46:18;111992.50;;;-145.11;89.25
63033;BME280;49121;38.932;-9.018;2023-02-21T06:48:38;111992.50;;;-145.11;89.44
63033;BME280;49121;38.932;-9.018;2023-02-21T06:50:38;111992.50;;;-145.11;89.73
63033;BME280;49121;38.932;-9.018;2023-02-21T06:52:39;111992.50;;;-145.11;89.88
63033;BME280;49121;38.932;-9.018;2023-02-21T06:54:39;111992.50;;;-145.11;89.85
63033;BME280;49121;38.932;-9.018;2023-02-21T06:56:40;111992.50;;;-145.11;90.06
63033;BME280;49121;38.932;-9.018;2023-02-21T06:58:41;111992.50;;;-145.11;90.34
63033;BME280;49121;38.932;-9.018;2023-02-21T07:00:41;111992.50;;;-145.11;90.83
63033;BME280;49121;38.932;-9.018;2023-02-21T07:05:38;111992.50;;;-145.11;91.00
63033;BME280;49121;38.932;-9.018;2023-02-21T07:07:39;111992.50;;;-145.11;90.93
63033;BME280;49121;38.932;-9.018;2023-02-21T07:09:39;111992.50;;;-145.11;91.08
63033;BME280;49121;38.932;-9.018;2023-02-21T07:11:40;111992.50;;;-145.11;91.35
63033;BME280;49121;38.932;-9.018;2023-02-21T07:13:41;111992.50;;;-145.11;91.15
63033;BME280;49121;38.932;-9.018;2023-02-21T07:18:26;111992.50;;;-145.11;91.24
63033;BME280;49121;38.932;-9.018;2023-02-21T07:20:27;111992.50;;;-145.11;90.88
63033;BME280;49121;38.932;-9.018;2023-02-21T07:22:28;111992.50;;;-145.11;91.49
63033;BME280;49121;38.932;-9.018;2023-02-21T07:26:48;111992.50;;;-145.11;90.78
63033;BME280;49121;38.932;-9.018;2023-02-21T07:28:48;111992.50;;;-145.11;91.09
63033;BME280;49121;38.932;-9.018;2023-02-21T07:30:49;111992.50;;;-145.11;91.39
63033;BME280;49121;38.932;-9.018;2023-02-21T07:32:50;111992.50;;;-145.11;91.30
63033;BME280;49121;38.932;-9.018;2023-02-21T07:34:50;111992.50;;;-145.11;90.60
63033;BME280;49121;38.932;-9.018;2023-02-21T07:36:51;111992.50;;;-145.11;91.13
63033;BME280;49121;38.932;-9.018;2023-02-21T07:38:52;111992.50;;;-145.11;91.21
63033;BME280;49121;38.932;-9.018;2023-02-21T07:40:58;111992.50;;;-145.11;90.80
63033;BME280;49121;38.932;-9.018;2023-02-21T07:42:59;111992.50;;;-145.11;89.83
63033;BME280;49121;38.932;-9.018;2023-02-21T07:45:00;111992.50;;;-145.11;89.85
63033;BME280;49121;38.932;-9.018;2023-02-21T07:47:01;111992.50;;;-145.11;90.24
63033;BME280;49121;38.932;-9.018;2023-02-21T07:49:01;111992.50;;;-145.11;89.66
63033;BME280;49121;38.932;-9.018;2023-02-21T07:51:02;111992.50;;;-145.11;90.05
63033;BME280;49121;38.932;-9.018;2023-02-21T07:53:03;111992.50;;;-145.11;89.38
63033;BME280;49121;38.932;-9.018;2023-02-21T07:55:04;111992.50;;;-145.11;89.53
63033;BME280;49121;38.932;-9.018;2023-02-21T07:57:04;111992.50;;;-145.11;89.71
63033;BME280;49121;38.932;-9.018;2023-02-21T07:59:06;111992.50;;;-145.11;89.62
63033;BME280;49121;38.932;-9.018;2023-02-21T08:01:10;111992.50;;;-145.11;89.58
63033;BME280;49121;38.932;-9.018;2023-02-21T08:03:12;111992.50;;;-145.11;89.79
63033;BME280;49121;38.932;-9.018;2023-02-21T08:05:14;111992.50;;;-145.11;89.57
63033;BME280;49121;38.932;-9.018;2023-02-21T08:07:15;111992.50;;;-145.11;89.61
63033;BME280;49121;38.932;-9.018;2023-02-21T08:09:16;111992.50;;;-145.11;88.94
63033;BME280;49121;38.932;-9.018;2023-02-21T08:11:17;111992.50;;;-145.11;88.44
63033;BME280;49121;38.932;-9.018;2023-02-21T08:13:20;111992.50;;;-145.11;88.11
63033;BME280;49121;38.932;-9.018;2023-02-21T08:15:21;111992.50;;;-145.11;88.19
63033;BME280;49121;38.932;-9.018;2023-02-21T08:17:22;111992.50;;;-145.11;87.87
63033;BME280;49121;38.932;-9.018;2023-02-21T08:19:23;111992.50;;;-145.11;87.61
63033;BME280;49121;38.932;-9.018;2023-02-21T08:21:23;111992.50;;;-145.11;87.09
63033;BME280;49121;38.932;-9.018;2023-02-21T08:23:24;111992.50;;;-145.11;86.48
63033;BME280;49121;38.932;-9.018;2023-02-21T08:25:24;111992.50;;;-145.11;84.64
63033;BME280;49121;38.932;-9.018;2023-02-21T08:27:25;111992.50;;;-145.11;83.89
63033;BME280;49121;38.932;-9.018;2023-02-21T08:29:26;111992.50;;;-145.11;82.00
63033;BME280;49121;38.932;-9.018;2023-02-21T08:34:31;111992.50;;;-145.11;81.81
63033;BME280;49121;38.932;-9.018;2023-02-21T08:36:34;111992.50;;;-145.11;81.40
63033;BME280;49121;38.932;-9.018;2023-02-21T08:38:35;111992.50;;;-145.11;79.86
63033;BME280;49121;38.932;-9.018;2023-02-21T08:40:36;111992.50;;;-145.11;79.90
63033;BME280;49121;38.932;-9.018;2023-02-21T08:42:36;111992.50;;;-145.11;79.72
63033;BME280;49121;38.932;-9.018;2023-02-21T08:44:37;111992.50;;;-145.11;79.39
63033;BME280;49121;38.932;-9.018;2023-02-21T08:46:37;111992.50;;;-145.11;79.43
63033;BME280;49121;38.932;-9.018;2023-02-21T08:51:47;111992.50;;;-145.11;78.28
63033;BME280;49121;38.932;-9.018;2023-02-21T08:53:47;111992.50;;;-145.11;78.02
63033;BME280;49121;38.932;-9.018;2023-02-21T08:55:48;111992.50;;;-145.11;77.24
63033;BME280;49121;38.932;-9.018;2023-02-21T08:57:50;111992.50;;;-145.11;76.24
63033;BME280;49121;38.932;-9.018;2023-02-21T08:59:51;111992.50;;;-145.11;75.28
63033;BME280;49121;38.932;-9.018;2023-02-21T09:01:52;111992.50;;;-145.11;75.05
63033;BME280;49121;38.932;-9.018;2023-02-21T09:03:53;111992.50;;;-145.11;75.18
63033;BME280;49121;38.932;-9.018;2023-02-21T09:05:53;111992.50;;;-145.11;74.57
63033;BME280;49121;38.932;-9.018;2023-02-21T09:07:57;111992.50;;;-145.11;75.15
63033;BME280;49121;38.932;-9.018;2023-02-21T09:10:01;111992.50;;;-145.11;74.73
63033;BME280;49121;38.932;-9.018;2023-02-21T09:12:02;111992.50;;;-145.11;74.75
63033;BME280;49121;38.932;-9.018;2023-02-21T09:14:02;111992.50;;;-145.11;74.67
63033;BME280;49121;38.932;-9.018;2023-02-21T09:16:05;111992.50;;;-145.11;75.03
63033;BME280;49121;38.932;-9.018;2023-02-21T09:18:06;111992.50;;;-145.11;74.23
63033;BME280;49121;38.932;-9.018;2023-02-21T09:20:09;111992.50;;;-145.11;73.63
63033;BME280;49121;38.932;-9.018;2023-02-21T09:22:10;111992.50;;;-145.11;73.73
63033;BME280;49121;38.932;-9.018;2023-02-21T09:24:10;111992.50;;;-145.11;73.48
63033;BME280;49121;38.932;-9.018;2023-02-21T09:26:11;111992.50;;;-145.11;73.15
63033;BME280;49121;38.932;-9.018;2023-02-21T09:28:13;111992.50;;;-145.11;72.32
63033;BME280;49121;38.932;-9.018;2023-02-21T09:30:17;111992.50;;;-145.11;71.11
63033;BME280;49121;38.932;-9.018;2023-02-21T09:32:18;111992.50;;;-145.11;71.39
63033;BME280;49121;38.932;-9.018;2023-02-21T09:34:18;111992.50;;;-145.11;71.25
63033;BME280;49121;38.932;-9.018;2023-02-21T09:36:19;111992.50;;;-145.11;70.38
63033;BME280;49121;38.932;-9.018;2023-02-21T09:38:23;111992.50;;;-145.11;69.43
63033;BME280;49121;38.932;-9.018;2023-02-21T09:42:29;111992.50;;;-145.11;69.98
63033;BME280;49121;38.932;-9.018;2023-02-21T09:44:30;111992.50;;;-145.11;70.33
63033;BME280;49121;38.932;-9.018;2023-02-21T09:46:47;111992.50;;;-145.11;70.29
63033;BME280;49121;38.932;-9.018;2023-02-21T09:48:49;111992.50;;;-145.11;70.29
63033;BME280;49121;38.932;-9.018;2023-02-21T09:50:54;111992.50;;;-145.11;70.15
63033;BME280;49121;38.932;-9.018;2023-02-21T09:52:57;111992.50;;;-145.11;69.75
63033;BME280;49121;38.932;-9.018;2023-02-21T09:57:19;111992.50;;;-145.11;68.81
63033;BME280;49121;38.932;-9.018;2023-02-21T09:59:20;111992.50;;;-145.11;67.82
63033;BME280;49121;38.932;-9.018;2023-02-21T10:04:00;111992.50;;;-145.11;67.17
63033;BME280;49121;38.932;-9.018;2023-02-21T10:08:25;111992.50;;;-145.11;67.65
63033;BME280;49121;38.932;-9.018;2023-02-21T10:10:43;111992.50;;;-145.11;68.02
63033;BME280;49121;38.932;-9.018;2023-02-21T10:20:33;111992.50;;;-145.11;66.96
63033;BME280;49121;38.932;-9.018;2023-02-21T10:22:39;111992.50;;;-145.11;66.70
63033;BME280;49121;38.932;-9.018;2023-02-21T10:24:40;111992.50;;;-145.11;66.56
63033;BME280;49121;38.932;-9.018;2023-02-21T10:26:46;111992.50;;;-145.11;66.19
63033;BME280;49121;38.932;-9.018;2023-02-21T10:28:49;111992.50;;;-145.11;67.90
63033;BME280;49121;38.932;-9.018;2023-02-21T10:30:58;111992.50;;;-145.11;67.55
63033;BME280;49121;38.932;-9.018;2023-02-21T10:35:38;111992.50;;;-145.11;67.48
63033;BME280;49121;38.932;-9.018;2023-02-21T10:40:41;111992.50;;;-145.11;67.62
63033;BME280;49121;38.932;-9.018;2023-02-21T10:42:44;111992.50;;;-145.11;67.28
63033;BME280;49121;38.932;-9.018;2023-02-21T10:44:49;111992.50;;;-145.11;67.35
63033;BME280;49121;38.932;-9.018;2023-02-21T10:50:03;111992.50;;;-145.11;66.60
63033;BME280;49121;38.932;-9.018;2023-02-21T10:51:43;111992.50;;;-145.11;65.66
63033;BME280;49121;38.932;-9.018;2023-02-21T10:53:46;111992.50;;;-145.11;63.09
63033;BME280;49121;38.932;-9.018;2023-02-21T10:58:17;111992.50;;;-145.11;63.31
63033;BME280;49121;38.932;-9.018;2023-02-21T11:00:43;111992.50;;;-145.11;61.44
63033;BME280;49121;38.932;-9.018;2023-02-21T11:02:52;111992.50;;;-145.11;59.34
63033;BME280;49121;38.932;-9.018;2023-02-21T11:04:55;111992.50;;;-145.11;58.71
63033;BME280;49121;38.932;-9.018;2023-02-21T11:07:08;111992.50;;;-145.11;59.48
63033;BME280;49121;38.932;-9.018;2023-02-21T11:09:46;111992.50;;;-145.11;60.78
63033;BME280;49121;38.932;-9.018;2023-02-21T11:11:47;111992.50;;;-145.11;60.00
63033;BME280;49121;38.932;-9.018;2023-02-21T11:16:34;111992.50;;;-145.11;59.82
63033;BME280;49121;38.932;-9.018;2023-02-21T11:18:35;111992.50;;;-145.11;59.92
63033;BME280;49121;38.932;-9.018;2023-02-21T11:23:53;111992.50;;;-145.11;57.89
63033;BME280;49121;38.932;-9.018;2023-02-21T11:26:09;111992.50;;;-145.11;58.88
63033;BME280;49121;38.932;-9.018;2023-02-21T11:30:21;111992.50;;;-145.11;58.58
63033;BME280;49121;38.932;-9.018;2023-02-21T11:32:39;111992.50;;;-145.11;57.30
63033;BME280;49121;38.932;-9.018;2023-02-21T11:34:41;111992.50;;;-145.11;56.67
63033;BME280;49121;38.932;-9.018;2023-02-21T11:36:47;111992.50;;;-145.11;55.88
63033;BME280;49121;38.932;-9.018;2023-02-21T11:43:52;111992.50;;;-145.11;55.06
63033;BME280;49121;38.932;-9.018;2023-02-21T11:48:15;111992.50;;;-145.11;55.45
63033;BME280;49121;38.932;-9.018;2023-02-21T11:50:24;111992.50;;;-145.11;54.76
63033;BME280;49121;38.932;-9.018;2023-02-21T11:54:35;111992.50;;;-145.11;52.57
63033;BME280;49121;38.932;-9.018;2023-02-21T12:01:11;111992.50;;;-145.11;54.08
63033;BME280;49121;38.932;-9.018;2023-02-21T12:05:46;111992.50;;;-145.11;53.18
63033;BME280;49121;38.932;-9.018;2023-02-21T12:08:15;111992.50;;;-145.11;53.28
63033;BME280;49121;38.932;-9.018;2023-02-21T12:15:00;111992.50;;;-145.11;53.11
63033;BME280;49121;38.932;-9.018;2023-02-21T12:23:50;111992.50;;;-145.11;52.15
63033;BME280;49121;38.932;-9.018;2023-02-21T12:28:25;111992.50;;;-145.11;51.21
63033;BME280;49121;38.932;-9.018;2023-02-21T12:33:02;111992.50;;;-145.11;53.08
63033;BME280;49121;38.932;-9.018;2023-02-21T12:45:22;111992.50;;;-145.11;51.96
63033;BME280;49121;38.932;-9.018;2023-02-21T12:47:33;111992.50;;;-145.11;51.39
63033;BME280;49121;38.932;-9.018;2023-02-21T12:55:21;111992.50;;;-145.11;52.07
63033;BME280;49121;38.932;-9.018;2023-02-21T12:57:29;111992.50;;;-145.11;51.57
63033;BME280;49121;38.932;-9.018;2023-02-21T13:02:11;111992.50;;;-145.11;52.66
63033;BME280;49121;38.932;-9.018;2023-02-21T13:04:35;111992.50;;;-145.11;53.60
63033;BME280;49121;38.932;-9.018;2023-02-21T13:06:46;111992.50;;;-145.11;53.48
63033;BME280;49121;38.932;-9.018;2023-02-21T13:09:18;111992.50;;;-145.11;53.01